Terminal Aerodrome Forecast
Issued by NWS Twin Cities, MN

Home | Current Version | Previous Version | Graphics & Text | Print | Product List | Glossary On
Versions: 1 2 3 4 5 6 7 8 9 10 11 12 13 14 15
711
FTUS43 KMPX 222346
TAFSTC
TAF
KSTC 222346Z 2300/2324 08006KT 1 1/2SM -SN BR OVC025
     FM230200 10005KT 3/4SM -SN BR VV007
     FM230800 13004KT 2SM -SN BR OVC008
     FM231000 22004KT P6SM OVC011
     FM231400 28009KT P6SM OVC012
     FM232100 30009KT P6SM SCT015=

USA.gov is the U.S. government's official web portal to all federal, state and local government web resources and services.